• Join FlightAware (Why Join?)
  • Login
  • US Flag 
07:08AM EDT


 

Airport Tracker/Info


-or-


 

Live Flight TrackerFlight Track Log ✈ N939TW ✈ 04-May-2013 ✈ KMSY - KGNV

Flight Track Log - Related Links

Times and Time Zones

All times are in EDT time to prevent confusion due to time zone crossing. See the N939TW flight status page for this flight to view local times or setup timezone preferences in your user account.

Time Position Orientation Groundspeed Altitude Reporting Facility
EDT Latitude Longitude Course Direction KTS MPH feet Rate Location/Type
08:07AM 30.0028 -90.3081 285° West 189 217 2,500  Level Houston Center
08:08AM 30.0233 -90.3275 321° Northwest 190 219 5,100 3,600 Climbing Houston Center
08:09AM 30.0467 -90.2661 66° East 252 290 8,900 3,660 Climbing Houston Center
08:10AM 30.0425 -90.1539 92° East 294 338 12,600 3,240 Climbing Houston Center
08:11AM 30.0400 -90.0517 92° East 317 365 15,500 2,400 Climbing Houston Center
08:12AM 30.0539 -89.9433 82° East 351 404 17,600 1,920 Climbing Houston Center
08:13AM 30.0839 -89.8353 72° East 358 412 19,500 1,920 Climbing Houston Center
08:14AM 30.1003 -89.7167 81° East 382 440 21,600 1,920 Climbing Houston Center
08:15AM 30.1147 -89.5936 82° East 391 450 23,500 1,860 Climbing Houston Center
08:16AM 30.1092 -89.4653 93° East 408 470 25,500 1,920 Climbing Houston Center
08:17AM 30.1053 -89.3350 92° East 407 468 27,500 1,860 Climbing Houston Center
08:18AM 30.1014 -89.2042 92° East 412 474 29,300 1,800 Climbing Houston Center
08:19AM 30.0958 -89.0453 92° East 415 478 31,200 1,620 Climbing Houston Center
08:20AM 30.0908 -88.9117 92° East 418 481 32,700 1,380 Climbing Houston Center
08:21AM 30.0864 -88.7767 92° East 422 486 34,100 1,140 Climbing Houston Center
08:22AM 30.0803 -88.6381 93° East 427 491 35,100 900 Climbing Houston Center
08:23AM 30.0753 -88.4964 92° East 441 507 36,000 840 Climbing Houston Center
08:24AM 30.0692 -88.3511 93° East 454 522 36,900 840 Climbing Houston Center
08:25AM 30.0633 -88.2036 93° East 461 531 37,800 780 Climbing Houston Center
08:26AM 30.0581 -88.0567 92° East 461 531 38,600 540 Climbing Houston Center
08:27AM 30.0519 -87.9092 93° East 462 532 39,000 180 Climbing Houston Center
08:28AM 30.0450 -87.7592 93° East 468 539 39,000  Level Houston Center
08:29AM 30.0378 -87.5747 93° East 479 551 39,000  Level Houston Center
08:30AM 30.0306 -87.4203 93° East 485 558 39,000  Level Houston Center
08:31AM 30.0244 -87.2733 93° East 489 563 39,000  Level Houston Center
08:32AM 30.0172 -87.1164 93° East 492 566 39,000  Level Houston Center
08:33AM 30.0089 -86.9608 94° East 488 562 39,000  Level Houston Center
08:34AM 30.0019 -86.8050 93° East 488 562 39,000  Level Houston Center
08:35AM 29.9933 -86.6503 94° East 486 559 39,000  Level Houston Center
08:36AM 29.9828 -86.4581 94° East 481 554 39,000  Level Jacksonville Center
08:37AM 29.9744 -86.3069 94° East 481 554 39,000  Level Jacksonville Center
08:38AM 29.9661 -86.1531 94° East 481 554 39,000  Level Jacksonville Center
08:39AM 29.9572 -85.9969 94° East 481 554 39,000  Level Jacksonville Center
08:40AM 29.9464 -85.8456 95° East 481 554 39,000  Level Jacksonville Center
08:41AM 29.9350 -85.6944 95° East 481 554 39,000  Level Jacksonville Center
08:42AM 29.9261 -85.5239 93° East 481 554 39,000  Level Jacksonville Center
08:43AM 29.9189 -85.3753 93° East 476 548 39,000 -300 Level Jacksonville Center
08:44AM 29.9089 -85.2289 94° East 470 541 38,500 -1,440 Descending Jacksonville Center
08:45AM 29.9011 -85.0800 93° East 464 534 36,200 -2,280 Descending Jacksonville Center
08:46AM 29.8892 -84.9264 95° East 464 534 34,000 -2,220 Descending Jacksonville Center
08:47AM 29.8789 -84.7706 94° East 474 545 31,800 -2,220 Descending Jacksonville Center
08:48AM 29.8706 -84.6194 94° East 479 551 29,600 -2,280 Descending Jacksonville Center
08:49AM 29.8581 -84.4756 96° East 474 545 27,300 -2,400 Descending Jacksonville Center
08:50AM 29.8511 -84.3367 93° East 451 519 24,800 -1,800 Descending Jacksonville Center
08:51AM 29.8400 -84.2094 96° East 421 484 23,800 -900 Descending Jacksonville Center
08:52AM 29.8331 -84.0825 94° East 403 464 23,100 -420 Descending Jacksonville Center
08:53AM 29.8236 -83.9531 95° East 398 458 23,000 -60 Descending Jacksonville Center
08:54AM 29.8142 -83.8239 95° East 403 464 23,000  Level Jacksonville Center
08:55AM 29.8025 -83.6944 96° East 403 464 23,000 -60 Level Jacksonville Center
08:56AM 29.7950 -83.5675 94° East 408 470 22,900 -960 Descending Jacksonville Center
08:57AM 29.7850 -83.4453 95° East 396 456 21,100 -2,280 Descending Jacksonville Center
08:58AM 29.7753 -83.3233 95° East 390 449 18,400 -2,940 Descending Jacksonville Center
08:59AM 29.7672 -83.2275 96° East 373 429 15,800 -3,180 Descending Jacksonville Center
09:00AM 29.7611 -83.1581 96° East 360 414 13,900 -3,000 Descending Jacksonville Center
09:00AM 29.7589 -83.0958 92° East 366 421 12,300 -2,580 Descending Jacksonville Center
09:01AM 29.7508 -83.0553 103° East 315 362 11,300 -1,320 Descending Jacksonville Center
09:01AM 29.7508 -83.0050 90° East 335 386 11,000 -300 Descending Jacksonville Center
09:02AM 29.7467 -82.9692 98° East 252 290 11,000 -540 Level Jacksonville Center
09:02AM 29.7383 -82.9261 103° East 263 303 10,500 -1,380 Descending Jacksonville Center
09:03AM 29.7258 -82.8903 112° Southeast 263 303 9,600 -2,100 Descending Jacksonville Center
09:03AM 29.7175 -82.8400 101° East 263 303 8,400 -2,340 Descending Jacksonville Center
09:04AM 29.7050 -82.8089 115° Southeast 269 310 7,300 -2,040 Descending Jacksonville Center
09:04AM 29.7047 -82.7706 90° East 263 303 6,400 -2,340 Descending Jacksonville Center
09:05AM 29.7131 -82.7206 79° East 233 268 4,700 -2,220 Descending Jacksonville Center
09:05AM 29.7131 -82.6964 90° East 244 281 4,200 -1,320 Descending Jacksonville Center
09:06AM 29.7172 -82.6558 83° East 190 219 3,400 -1,020 Descending Jacksonville Center
09:06AM 29.7192 -82.6367 83° East 216 249 3,200 -300 Descending Jacksonville Center
09:07AM 29.7192 -82.5983 90° East 170 196 3,100 -120 Descending Jacksonville Center
09:07AM 29.7233 -82.5769 77° East 191 220 3,100  Level Jacksonville Center
09:08AM 29.7253 -82.5411 86° East 184 212 3,100  Level Jacksonville Center
09:08AM 29.7253 -82.5219 90° East 180 207 3,100  Level Jacksonville Center
09:09AM 29.7250 -82.4789 90° East 179 206 3,100 -720 Level Jacksonville Center
09:10AM 29.7167 -82.4333 102° East 145 167 2,000 -660 Descending Jacksonville Center
09:11AM 29.7081 -82.3928 104° East 127 146 1,800 -300 Descending Jacksonville Center
09:12AM 29.7017 -82.3569 102° East 105 121 1,500 -600 Descending Jacksonville Center
09:13AM 29.6975 -82.3258 99° East 99 114 600 -900 Descending Jacksonville Center
09:15AM 29.6833 -82.2667 90° East  Level FlightAware Approximate
09:22AM 29.6901 -82.2718 90° East  Level Estimated